Time;durP1;ratioP1;P1;durP2;ratioP2;P2;SDS_P1;SDS_P2;PMS_P1;PMS_P2;Temp;Humidity;BMP_temperature;BMP_pressure;BME280_temperature;BME280_humidity;BME280_pressure;Samples;Min_cycle;Max_cycle;Signal;HPM_P1;HPM_P2
2023/09/07 00:01:44;;;;;;;9.43;4.07;;;;;;;;;;4973443;28;20031;-62
2023/09/07 00:04:10;;;;;;;5.38;3.60;;;;;;;;;;4978746;28;20026;-65
2023/09/07 00:06:36;;;;;;;7.78;4.15;;;;;;;;;;4993592;28;20029;-66
2023/09/07 00:09:05;;;;;;;6.50;3.60;;;;;;;;;;4996543;28;20033;-66
2023/09/07 00:11:30;;;;;;;6.97;3.83;;;;;;;;;;4996091;28;20026;-66
2023/09/07 00:13:57;;;;;;;7.40;3.47;;;;;;;;;;4996423;28;20040;-66
2023/09/07 00:16:22;;;;;;;8.20;3.90;;;;;;;;;;4996419;28;20540;-66
2023/09/07 00:18:49;;;;;;;7.45;4.00;;;;;;;;;;4995956;28;20054;-67
2023/09/07 00:21:14;;;;;;;8.30;4.28;;;;;;;;;;4981024;28;20042;-66
2023/09/07 00:23:40;;;;;;;5.18;3.70;;;;;;;;;;4976666;28;20432;-66
2023/09/07 00:26:05;;;;;;;5.28;3.92;;;;;;;;;;4975485;28;20031;-66
2023/09/07 00:28:31;;;;;;;5.88;3.50;;;;;;;;;;4976425;28;20040;-67
2023/09/07 00:30:56;;;;;;;9.05;3.88;;;;;;;;;;4976569;28;20027;-66
2023/09/07 00:33:22;;;;;;;5.55;4.00;;;;;;;;;;4976605;28;20122;-67
2023/09/07 00:35:47;;;;;;;8.43;3.38;;;;;;;;;;4976503;28;20062;-67
2023/09/07 00:38:12;;;;;;;6.93;3.63;;;;;;;;;;4976487;28;20081;-66
2023/09/07 00:40:38;;;;;;;6.68;3.85;;;;;;;;;;4976592;28;20496;-67
2023/09/07 00:43:04;;;;;;;7.30;4.00;;;;;;;;;;4976540;28;20494;-67
2023/09/07 00:45:30;;;;;;;5.47;3.75;;;;;;;;;;4976534;28;20027;-67
2023/09/07 00:47:55;;;;;;;5.88;3.75;;;;;;;;;;4976324;28;20364;-66
2023/09/07 00:50:21;;;;;;;7.88;3.95;;;;;;;;;;5006914;28;20383;-65
2023/09/07 00:52:47;;;;;;;6.78;3.88;;;;;;;;;;5015102;28;20088;-66
2023/09/07 00:55:13;;;;;;;7.10;4.10;;;;;;;;;;5009550;28;20022;-66
2023/09/07 00:57:39;;;;;;;6.30;3.92;;;;;;;;;;4995469;28;20027;-65
2023/09/07 01:00:07;;;;;;;5.63;3.58;;;;;;;;;;4995765;28;20030;-66
2023/09/07 01:02:33;;;;;;;6.93;3.55;;;;;;;;;;4995543;28;20022;-66
2023/09/07 01:04:59;;;;;;;6.78;4.00;;;;;;;;;;4995132;28;20130;-67
2023/09/07 01:07:32;;;;;;;5.00;3.78;;;;;;;;;;4995445;28;20035;-66
2023/09/07 01:10:00;;;;;;;5.05;3.67;;;;;;;;;;4995215;28;20022;-65
2023/09/07 01:12:26;;;;;;;5.20;3.80;;;;;;;;;;4995337;28;20033;-67
2023/09/07 01:14:52;;;;;;;5.57;3.63;;;;;;;;;;4995390;28;20026;-67
2023/09/07 01:17:21;;;;;;;5.63;3.38;;;;;;;;;;4994172;28;20117;-67
2023/09/07 01:19:49;;;;;;;7.93;4.00;;;;;;;;;;4991691;28;20054;-66
2023/09/07 01:22:14;;;;;;;7.53;3.78;;;;;;;;;;4975765;28;20031;-65
2023/09/07 01:24:41;;;;;;;7.05;3.65;;;;;;;;;;4975547;28;20388;-67
2023/09/07 01:27:07;;;;;;;6.20;3.53;;;;;;;;;;4974540;28;20034;-67
2023/09/07 01:29:33;;;;;;;5.50;4.35;;;;;;;;;;4975709;28;20023;-67
2023/09/07 01:31:59;;;;;;;8.65;4.43;;;;;;;;;;4975430;28;20058;-66
2023/09/07 01:34:25;;;;;;;7.78;4.28;;;;;;;;;;4975524;28;20460;-66
2023/09/07 01:36:50;;;;;;;7.97;4.00;;;;;;;;;;4975264;28;20328;-67
2023/09/07 01:39:16;;;;;;;5.47;3.95;;;;;;;;;;4975342;28;20544;-65
2023/09/07 01:41:42;;;;;;;8.05;4.25;;;;;;;;;;4975114;28;20113;-67
2023/09/07 01:44:08;;;;;;;8.73;3.97;;;;;;;;;;4975496;28;20062;-68
2023/09/07 01:46:33;;;;;;;8.52;4.30;;;;;;;;;;4975144;28;20029;-67
2023/09/07 01:48:58;;;;;;;7.25;3.88;;;;;;;;;;4983867;28;20022;-67
2023/09/07 01:51:27;;;;;;;6.78;4.22;;;;;;;;;;5013871;28;20030;-68
2023/09/07 01:53:54;;;;;;;5.60;4.28;;;;;;;;;;5014079;28;20041;-68
2023/09/07 01:56:19;;;;;;;6.38;4.40;;;;;;;;;;4999149;28;20109;-67
2023/09/07 01:58:45;;;;;;;7.05;3.80;;;;;;;;;;4994212;28;20053;-68
2023/09/07 02:01:40;;;;;;;8.85;4.25;;;;;;;;;;4994157;28;20482;-67
2023/09/07 02:04:06;;;;;;;8.45;4.45;;;;;;;;;;4985427;28;20217;-67
2023/09/07 02:06:31;;;;;;;6.80;4.13;;;;;;;;;;4994258;28;20537;-68
2023/09/07 02:08:57;;;;;;;7.90;5.30;;;;;;;;;;4994243;28;20041;-67
2023/09/07 02:11:22;;;;;;;6.93;4.65;;;;;;;;;;4993979;28;20056;-67
2023/09/07 02:13:48;;;;;;;6.05;4.78;;;;;;;;;;4999598;28;20025;-66
2023/09/07 02:16:14;;;;;;;6.75;4.90;;;;;;;;;;5013421;28;20030;-67
2023/09/07 02:18:46;;;;;;;6.22;4.78;;;;;;;;;;5013440;28;20058;-67
2023/09/07 02:21:12;;;;;;;7.90;4.93;;;;;;;;;;4998577;28;20038;-67
2023/09/07 02:23:38;;;;;;;7.68;4.40;;;;;;;;;;4994119;28;20033;-65
2023/09/07 02:26:03;;;;;;;7.95;4.55;;;;;;;;;;4994011;28;20026;-66
2023/09/07 02:28:29;;;;;;;7.13;4.93;;;;;;;;;;4993898;28;20468;-67
2023/09/07 02:30:55;;;;;;;6.63;4.72;;;;;;;;;;4993768;28;20457;-66
2023/09/07 02:33:20;;;;;;;5.97;4.82;;;;;;;;;;4993786;28;20038;-67
2023/09/07 02:35:48;;;;;;;9.20;5.20;;;;;;;;;;4993835;28;20034;-65
2023/09/07 02:38:13;;;;;;;8.60;5.25;;;;;;;;;;4992536;28;20030;-67
2023/09/07 02:40:42;;;;;;;7.07;5.18;;;;;;;;;;4993554;28;20179;-66
2023/09/07 02:43:07;;;;;;;7.63;4.78;;;;;;;;;;4993566;28;20027;-66
2023/09/07 02:45:32;;;;;;;5.35;4.68;;;;;;;;;;4993522;28;20037;-67
2023/09/07 02:47:58;;;;;;;6.95;4.90;;;;;;;;;;4993551;28;20022;-68
2023/09/07 02:50:23;;;;;;;7.63;4.72;;;;;;;;;;5009591;28;20033;-67
2023/09/07 02:52:49;;;;;;;8.38;4.85;;;;;;;;;;5012908;28;20026;-67
2023/09/07 02:55:15;;;;;;;7.47;4.97;;;;;;;;;;5006958;28;20022;-67
2023/09/07 02:57:40;;;;;;;6.18;4.70;;;;;;;;;;4993460;28;20387;-66
2023/09/07 03:00:09;;;;;;;7.65;4.72;;;;;;;;;;4993135;28;20026;-64
2023/09/07 03:02:35;;;;;;;6.55;4.53;;;;;;;;;;4993455;28;20018;-67
2023/09/07 03:05:01;;;;;;;9.32;4.88;;;;;;;;;;4993362;28;20036;-67
2023/09/07 03:07:26;;;;;;;5.82;4.60;;;;;;;;;;4993289;28;20030;-66
2023/09/07 03:09:52;;;;;;;5.45;4.10;;;;;;;;;;4993449;28;20062;-66
2023/09/07 03:12:18;;;;;;;8.00;4.53;;;;;;;;;;4993220;28;20038;-67
2023/09/07 03:14:44;;;;;;;6.03;4.70;;;;;;;;;;4992996;28;20031;-66
2023/09/07 03:17:10;;;;;;;6.38;4.43;;;;;;;;;;4993284;28;20022;-67
2023/09/07 03:19:36;;;;;;;6.65;4.78;;;;;;;;;;4991351;28;20058;-66
2023/09/07 03:22:01;;;;;;;6.45;4.75;;;;;;;;;;4973807;28;20035;-66
2023/09/07 03:24:28;;;;;;;6.00;4.47;;;;;;;;;;4973666;28;20034;-66
2023/09/07 03:26:53;;;;;;;8.20;5.30;;;;;;;;;;4973735;28;20106;-67
2023/09/07 03:29:18;;;;;;;10.93;5.80;;;;;;;;;;4973529;28;20050;-66
2023/09/07 03:31:44;;;;;;;9.15;4.97;;;;;;;;;;4973525;28;20063;-67
2023/09/07 03:34:09;;;;;;;10.88;5.18;;;;;;;;;;4973855;28;20492;-67
2023/09/07 03:36:36;;;;;;;8.27;5.53;;;;;;;;;;4973578;28;20022;-66
2023/09/07 03:39:01;;;;;;;8.65;5.13;;;;;;;;;;4973717;28;20090;-67
2023/09/07 03:41:30;;;;;;;7.15;5.40;;;;;;;;;;4975097;28;20031;-67
2023/09/07 03:43:56;;;;;;;10.82;5.60;;;;;;;;;;4977344;28;20079;-66
2023/09/07 03:46:21;;;;;;;10.73;5.20;;;;;;;;;;4977619;28;20391;-66
2023/09/07 03:48:47;;;;;;;8.38;5.28;;;;;;;;;;4982884;28;20024;-67
2023/09/07 03:51:13;;;;;;;7.82;4.88;;;;;;;;;;5016548;28;20021;-67
2023/09/07 03:53:38;;;;;;;14.57;5.85;;;;;;;;;;5016278;28;20113;-67
2023/09/07 03:56:04;;;;;;;9.23;4.82;;;;;;;;;;5003303;28;20053;-66
2023/09/07 03:58:29;;;;;;;12.38;5.50;;;;;;;;;;4996666;28;20188;-66
2023/09/07 04:00:58;;;;;;;11.93;5.43;;;;;;;;;;4996785;28;20030;-67
2023/09/07 04:03:23;;;;;;;12.07;5.47;;;;;;;;;;4996724;28;20030;-63
2023/09/07 04:05:50;;;;;;;15.02;5.72;;;;;;;;;;4996262;28;20026;-66
2023/09/07 04:08:16;;;;;;;7.22;4.90;;;;;;;;;;4996371;28;20511;-66
2023/09/07 04:10:41;;;;;;;12.57;5.38;;;;;;;;;;4996425;28;20029;-66
2023/09/07 04:13:06;;;;;;;9.00;5.22;;;;;;;;;;4996074;28;20022;-65
2023/09/07 04:15:34;;;;;;;8.15;5.03;;;;;;;;;;4996338;28;20034;-67
2023/09/07 04:17:59;;;;;;;14.43;5.57;;;;;;;;;;4996355;28;20019;-67
2023/09/07 04:20:26;;;;;;;7.20;5.10;;;;;;;;;;4987670;28;20387;-67
2023/09/07 04:22:51;;;;;;;7.90;5.30;;;;;;;;;;4976804;28;20030;-66
2023/09/07 04:25:17;;;;;;;9.02;5.35;;;;;;;;;;4976460;28;20157;-67
2023/09/07 04:27:42;;;;;;;9.77;5.40;;;;;;;;;;4975279;28;20030;-67
2023/09/07 04:30:08;;;;;;;13.35;5.80;;;;;;;;;;4975344;28;20118;-63
2023/09/07 04:32:33;;;;;;;13.55;5.60;;;;;;;;;;4976719;28;20376;-65
2023/09/07 04:35:01;;;;;;;13.82;5.22;;;;;;;;;;4976740;28;20027;-65
2023/09/07 04:37:26;;;;;;;12.48;4.93;;;;;;;;;;4976526;28;20102;-66
2023/09/07 04:39:53;;;;;;;15.07;5.60;;;;;;;;;;4976345;28;20134;-63
2023/09/07 04:42:19;;;;;;;16.15;5.22;;;;;;;;;;4976046;28;20019;-67
2023/09/07 04:44:44;;;;;;;9.20;4.72;;;;;;;;;;4976521;28;20041;-67
2023/09/07 04:47:10;;;;;;;16.15;5.97;;;;;;;;;;4976421;28;20031;-66
2023/09/07 04:49:35;;;;;;;18.35;5.43;;;;;;;;;;4994904;28;20030;-65
2023/09/07 04:52:01;;;;;;;14.95;5.38;;;;;;;;;;5014217;28;20022;-65
2023/09/07 04:54:26;;;;;;;10.85;5.68;;;;;;;;;;5014837;28;20026;-65
2023/09/07 04:56:52;;;;;;;13.95;5.60;;;;;;;;;;4995674;28;20357;-66
2023/09/07 04:59:17;;;;;;;16.15;5.18;;;;;;;;;;4995498;28;20022;-65
2023/09/07 05:01:43;;;;;;;22.35;6.53;;;;;;;;;;4995458;28;20093;-66
2023/09/07 05:04:08;;;;;;;20.98;6.32;;;;;;;;;;4995245;28;20532;-66
2023/09/07 05:06:37;;;;;;;17.83;5.35;;;;;;;;;;4994192;28;20093;-66
2023/09/07 05:09:03;;;;;;;15.40;6.60;;;;;;;;;;4995226;28;20476;-66
2023/09/07 05:11:28;;;;;;;11.65;5.90;;;;;;;;;;4995106;28;20113;-66
2023/09/07 05:13:54;;;;;;;13.40;6.97;;;;;;;;;;4995118;28;20106;-67
2023/09/07 05:16:19;;;;;;;12.07;7.20;;;;;;;;;;4995197;28;20033;-65
2023/09/07 05:18:45;;;;;;;14.05;6.30;;;;;;;;;;4995107;28;20121;-67
2023/09/07 05:21:11;;;;;;;11.05;5.88;;;;;;;;;;4980541;28;20085;-64
2023/09/07 05:23:37;;;;;;;13.38;5.68;;;;;;;;;;4975696;28;20085;-65
2023/09/07 05:26:02;;;;;;;8.13;5.72;;;;;;;;;;4975650;28;20031;-66
2023/09/07 05:28:28;;;;;;;13.27;6.30;;;;;;;;;;4975848;28;20031;-68
2023/09/07 05:30:53;;;;;;;10.65;6.18;;;;;;;;;;4975721;28;20034;-64
2023/09/07 05:33:18;;;;;;;12.20;5.32;;;;;;;;;;4975634;28;20027;-62
2023/09/07 05:35:45;;;;;;;10.38;5.50;;;;;;;;;;4975267;28;20069;-63
2023/09/07 05:38:11;;;;;;;11.57;5.35;;;;;;;;;;4975204;28;20019;-62
2023/09/07 05:40:38;;;;;;;14.98;6.30;;;;;;;;;;4975546;28;20415;-64
2023/09/07 05:43:05;;;;;;;12.93;5.82;;;;;;;;;;4975576;28;20049;-64
2023/09/07 05:45:31;;;;;;;15.00;5.72;;;;;;;;;;4975346;28;20015;-66
2023/09/07 05:47:57;;;;;;;13.25;7.03;;;;;;;;;;4975210;28;20027;-64
2023/09/07 05:50:22;;;;;;;12.30;6.35;;;;;;;;;;5006313;28;20383;-67
2023/09/07 05:52:48;;;;;;;13.40;7.28;;;;;;;;;;5013941;28;20026;-67
2023/09/07 05:55:13;;;;;;;11.02;7.25;;;;;;;;;;5007855;28;20110;-67
2023/09/07 05:57:39;;;;;;;9.27;7.13;;;;;;;;;;4994496;28;20129;-67
2023/09/07 06:00:05;;;;;;;10.15;7.30;;;;;;;;;;4994473;28;20502;-67
2023/09/07 06:02:30;;;;;;;10.27;6.95;;;;;;;;;;4994641;28;20032;-67
2023/09/07 06:04:56;;;;;;;10.98;6.97;;;;;;;;;;4993985;28;20117;-67
2023/09/07 06:07:21;;;;;;;11.82;6.57;;;;;;;;;;4994033;28;20027;-66
2023/09/07 06:09:47;;;;;;;11.68;7.20;;;;;;;;;;4994413;28;20105;-67
2023/09/07 06:12:13;;;;;;;8.80;6.95;;;;;;;;;;4994246;28;20365;-67
2023/09/07 06:14:38;;;;;;;11.30;6.85;;;;;;;;;;4994340;28;20110;-67
2023/09/07 06:17:04;;;;;;;12.73;7.03;;;;;;;;;;4994108;28;20050;-68
2023/09/07 06:19:29;;;;;;;11.45;6.68;;;;;;;;;;4992853;28;20042;-66
2023/09/07 06:21:55;;;;;;;9.32;6.57;;;;;;;;;;4988357;28;20040;-67
2023/09/07 06:24:20;;;;;;;14.00;7.05;;;;;;;;;;5010500;28;20025;-66
2023/09/07 06:26:46;;;;;;;11.35;6.25;;;;;;;;;;4997083;28;20041;-67
2023/09/07 06:29:11;;;;;;;23.02;6.38;;;;;;;;;;5006972;28;20033;-65
2023/09/07 06:31:37;;;;;;;10.25;6.10;;;;;;;;;;5003099;28;20440;-67
2023/09/07 06:34:02;;;;;;;11.10;5.65;;;;;;;;;;4997808;28;20029;-67
2023/09/07 06:36:29;;;;;;;10.05;5.55;;;;;;;;;;4977212;28;20030;-66
2023/09/07 06:38:55;;;;;;;10.57;5.40;;;;;;;;;;5005431;28;20026;-67
2023/09/07 06:41:20;;;;;;;6.57;5.03;;;;;;;;;;4993393;28;20026;-64
2023/09/07 06:43:46;;;;;;;10.77;5.38;;;;;;;;;;4985204;28;20045;-67
2023/09/07 06:46:11;;;;;;;11.27;5.07;;;;;;;;;;4974210;28;20027;-68
2023/09/07 06:48:37;;;;;;;7.95;5.05;;;;;;;;;;4973885;28;20034;-67
2023/09/07 06:51:03;;;;;;;10.95;4.85;;;;;;;;;;4977697;28;20085;-67
2023/09/07 06:53:29;;;;;;;7.47;4.57;;;;;;;;;;4992844;28;20495;-68
2023/09/07 06:55:59;;;;;;;10.32;5.30;;;;;;;;;;4993543;28;20042;-67
2023/09/07 06:58:24;;;;;;;10.82;4.90;;;;;;;;;;4986175;28;20038;-67
2023/09/07 07:00:50;;;;;;;15.20;5.93;;;;;;;;;;4977144;28;20029;-67
2023/09/07 07:03:15;;;;;;;13.70;5.88;;;;;;;;;;4993542;28;20045;-68
2023/09/07 07:05:40;;;;;;;17.33;6.40;;;;;;;;;;4983298;28;20436;-65
2023/09/07 07:08:06;;;;;;;9.68;6.65;;;;;;;;;;4993179;28;20069;-66
2023/09/07 07:10:31;;;;;;;14.75;6.80;;;;;;;;;;4993021;28;20105;-68
2023/09/07 07:12:57;;;;;;;11.80;5.88;;;;;;;;;;4992982;28;20395;-68
2023/09/07 07:15:22;;;;;;;14.18;6.50;;;;;;;;;;4975110;28;20445;-63
2023/09/07 07:17:48;;;;;;;15.32;6.50;;;;;;;;;;4973767;28;20027;-64
2023/09/07 07:20:13;;;;;;;8.40;5.82;;;;;;;;;;4979664;28;20411;-63
2023/09/07 07:22:39;;;;;;;11.23;5.78;;;;;;;;;;4992991;28;20023;-62
2023/09/07 07:25:05;;;;;;;15.18;6.10;;;;;;;;;;4994268;28;20475;-63
2023/09/07 07:27:31;;;;;;;10.32;5.03;;;;;;;;;;4993141;28;20027;-62
2023/09/07 07:29:57;;;;;;;14.48;5.10;;;;;;;;;;4992985;28;20026;-62
2023/09/07 07:32:22;;;;;;;9.88;4.93;;;;;;;;;;4975953;28;20041;-63
2023/09/07 07:34:48;;;;;;;12.30;5.32;;;;;;;;;;4973441;28;20037;-62
2023/09/07 07:37:13;;;;;;;8.55;4.93;;;;;;;;;;4976350;28;20019;-62
2023/09/07 07:39:38;;;;;;;12.95;5.30;;;;;;;;;;5006277;28;20083;-62
2023/09/07 07:42:05;;;;;;;10.68;4.93;;;;;;;;;;5012622;28;20022;-62
2023/09/07 07:44:31;;;;;;;20.67;5.82;;;;;;;;;;5012450;28;20037;-63
2023/09/07 07:46:56;;;;;;;10.70;5.20;;;;;;;;;;5012519;28;20034;-62
2023/09/07 07:49:22;;;;;;;17.80;6.05;;;;;;;;;;5012202;28;20037;-62
2023/09/07 07:51:47;;;;;;;11.70;6.03;;;;;;;;;;5012402;28;20113;-62
2023/09/07 07:54:13;;;;;;;13.63;5.72;;;;;;;;;;5012564;28;20029;-64
2023/09/07 07:56:39;;;;;;;9.98;5.82;;;;;;;;;;5010205;28;20383;-62
2023/09/07 07:59:04;;;;;;;11.93;6.00;;;;;;;;;;4992983;28;20040;-62
2023/09/07 08:01:30;;;;;;;15.05;5.60;;;;;;;;;;4992325;28;20450;-62
2023/09/07 08:03:55;;;;;;;12.98;5.60;;;;;;;;;;4992665;28;20077;-62
2023/09/07 08:06:21;;;;;;;19.75;6.45;;;;;;;;;;4977119;28;20030;-62
2023/09/07 08:08:46;;;;;;;14.93;5.40;;;;;;;;;;4973398;28;20109;-62
2023/09/07 08:11:12;;;;;;;10.77;5.15;;;;;;;;;;4973435;28;20045;-62
2023/09/07 08:13:37;;;;;;;17.95;6.10;;;;;;;;;;4973084;28;20042;-68
2023/09/07 08:16:03;;;;;;;16.77;6.25;;;;;;;;;;4973193;28;20482;-67
2023/09/07 08:18:31;;;;;;;12.93;5.22;;;;;;;;;;4972801;28;20564;-68
2023/09/07 08:20:57;;;;;;;17.42;5.80;;;;;;;;;;4985539;28;20064;-67
2023/09/07 08:23:25;;;;;;;10.40;4.95;;;;;;;;;;4992601;28;20531;-68
2023/09/07 08:25:52;;;;;;;12.85;5.15;;;;;;;;;;4992533;28;20105;-67
2023/09/07 08:28:18;;;;;;;9.40;4.97;;;;;;;;;;4995285;28;20034;-66
2023/09/07 08:30:44;;;;;;;7.93;4.45;;;;;;;;;;4995986;28;20018;-64
2023/09/07 08:33:09;;;;;;;12.85;5.10;;;;;;;;;;4995865;28;20536;-66
2023/09/07 08:35:35;;;;;;;20.38;5.05;;;;;;;;;;4996053;28;20030;-66
2023/09/07 08:38:05;;;;;;;12.70;4.88;;;;;;;;;;5002118;28;20117;-67
2023/09/07 08:40:32;;;;;;;10.70;4.72;;;;;;;;;;4995746;28;20401;-67
2023/09/07 08:43:02;;;;;;;13.38;5.13;;;;;;;;;;4995840;28;20026;-67
2023/09/07 08:45:29;;;;;;;13.93;5.00;;;;;;;;;;4995709;28;20034;-67
2023/09/07 08:47:56;;;;;;;11.07;4.60;;;;;;;;;;4995453;28;20076;-66
2023/09/07 08:50:23;;;;;;;12.88;4.63;;;;;;;;;;4995481;28;20112;-66
2023/09/07 08:52:52;;;;;;;17.65;4.45;;;;;;;;;;4995507;28;20487;-63
2023/09/07 08:55:18;;;;;;;14.68;4.40;;;;;;;;;;4995784;28;20034;-64
2023/09/07 08:57:43;;;;;;;7.85;4.13;;;;;;;;;;4995510;28;20084;-68
2023/09/07 09:00:15;;;;;;;8.60;4.00;;;;;;;;;;4995595;28;20081;-68
2023/09/07 09:02:40;;;;;;;9.20;4.47;;;;;;;;;;4995517;28;20106;-67
2023/09/07 09:05:10;;;;;;;12.98;3.60;;;;;;;;;;4990060;28;20101;-67
2023/09/07 09:07:37;;;;;;;13.25;4.07;;;;;;;;;;4975848;28;20048;-68
2023/09/07 09:10:07;;;;;;;15.40;4.40;;;;;;;;;;4975906;28;20380;-64
2023/09/07 09:12:33;;;;;;;9.57;3.90;;;;;;;;;;4975602;28;20046;-67
2023/09/07 09:15:00;;;;;;;11.15;4.47;;;;;;;;;;4975717;28;20167;-64
2023/09/07 09:17:26;;;;;;;9.00;4.10;;;;;;;;;;4975434;28;20027;-64
2023/09/07 09:19:51;;;;;;;7.63;4.47;;;;;;;;;;4979022;28;20038;-65
2023/09/07 09:22:17;;;;;;;12.10;4.30;;;;;;;;;;4993662;28;20442;-62
2023/09/07 09:24:42;;;;;;;9.63;3.92;;;;;;;;;;4995277;28;20022;-62
2023/09/07 09:27:08;;;;;;;10.23;4.05;;;;;;;;;;4994826;28;20023;-62
2023/09/07 09:29:34;;;;;;;13.02;4.00;;;;;;;;;;4994971;28;20030;-67
2023/09/07 09:32:04;;;;;;;10.85;3.60;;;;;;;;;;4994578;28;20195;-62
2023/09/07 09:34:32;;;;;;;8.02;4.05;;;;;;;;;;4994759;28;20018;-66
2023/09/07 09:36:58;;;;;;;10.03;3.60;;;;;;;;;;4994802;28;20034;-62
2023/09/07 09:39:24;;;;;;;13.70;4.07;;;;;;;;;;4994032;28;20547;-64
2023/09/07 09:41:51;;;;;;;16.10;3.80;;;;;;;;;;4994913;28;20038;-61
2023/09/07 09:44:16;;;;;;;11.20;3.50;;;;;;;;;;4994631;28;20404;-62
2023/09/07 09:46:43;;;;;;;17.52;3.97;;;;;;;;;;4994461;28;20031;-62
2023/09/07 09:49:11;;;;;;;11.30;3.72;;;;;;;;;;4994435;28;20035;-61
2023/09/07 09:51:38;;;;;;;6.38;3.78;;;;;;;;;;4994516;28;20030;-61
2023/09/07 09:54:04;;;;;;;9.60;3.70;;;;;;;;;;4994632;28;20034;-60
2023/09/07 09:56:30;;;;;;;9.70;3.53;;;;;;;;;;4994262;28;20022;-60
2023/09/07 09:58:55;;;;;;;6.53;3.28;;;;;;;;;;4994214;28;20057;-60
2023/09/07 10:01:22;;;;;;;6.85;3.50;;;;;;;;;;4993565;28;20026;-64
2023/09/07 10:03:50;;;;;;;8.73;3.08;;;;;;;;;;4994226;28;20026;-63
2023/09/07 10:06:23;;;;;;;8.13;3.30;;;;;;;;;;4979398;28;20161;-64
2023/09/07 10:08:59;;;;;;;6.30;3.13;;;;;;;;;;4974752;28;20389;-62
2023/09/07 10:11:37;;;;;;;7.45;3.20;;;;;;;;;;4974781;28;20054;-64
2023/09/07 10:14:03;;;;;;;4.60;2.90;;;;;;;;;;4985941;28;20061;-64
2023/09/07 10:16:40;;;;;;;9.38;3.58;;;;;;;;;;4994054;28;20571;-67
2023/09/07 10:19:16;;;;;;;6.50;2.95;;;;;;;;;;4994112;28;20483;-68
2023/09/07 10:21:42;;;;;;;6.28;3.05;;;;;;;;;;4993761;28;20034;-68
2023/09/07 10:24:08;;;;;;;10.68;3.10;;;;;;;;;;4994001;28;20024;-67
2023/09/07 10:26:33;;;;;;;4.95;2.72;;;;;;;;;;4993743;28;20030;-67
2023/09/07 10:29:02;;;;;;;12.05;3.10;;;;;;;;;;4993785;28;20045;-67
2023/09/07 10:31:30;;;;;;;;;;;;;;;;;;4994142;28;20551;-67
2023/09/07 10:33:55;;;;;;;8.35;3.03;;;;;;;;;;4993912;28;19975;-67
2023/09/07 10:36:26;;;;;;;5.90;2.60;;;;;;;;;;4993784;28;20124;-67
2023/09/07 10:38:53;;;;;;;4.50;2.60;;;;;;;;;;4993311;28;20037;-67
2023/09/07 10:41:19;;;;;;;5.85;2.35;;;;;;;;;;4993555;28;20249;-67
2023/09/07 10:43:48;;;;;;;5.20;2.42;;;;;;;;;;4993486;28;20510;-66
2023/09/07 10:46:17;;;;;;;5.13;2.30;;;;;;;;;;4993237;28;20026;-66
2023/09/07 10:48:43;;;;;;;3.85;2.08;;;;;;;;;;4993471;28;20088;-68
2023/09/07 10:51:08;;;;;;;5.05;2.22;;;;;;;;;;4993261;28;20460;-68
2023/09/07 10:53:34;;;;;;;5.03;2.40;;;;;;;;;;4993437;28;20033;-67
2023/09/07 10:56:03;;;;;;;3.67;2.40;;;;;;;;;;4993647;28;20029;-68
2023/09/07 10:58:38;;;;;;;;;;;;;;;;;;4993514;28;20026;-68
2023/09/07 11:01:04;;;;;;;6.93;2.50;;;;;;;;;;4993374;28;19921;-67
2023/09/07 11:03:30;;;;;;;4.15;2.10;;;;;;;;;;4993419;28;20068;-66
2023/09/07 11:06:03;;;;;;;4.22;2.30;;;;;;;;;;4981306;28;20239;-66
2023/09/07 11:08:29;;;;;;;5.53;2.45;;;;;;;;;;4973806;28;20081;-67
2023/09/07 11:10:55;;;;;;;3.17;2.05;;;;;;;;;;4973665;28;20520;-67
2023/09/07 11:13:22;;;;;;;3.88;2.60;;;;;;;;;;4973541;28;20042;-66
2023/09/07 11:15:47;;;;;;;3.97;2.42;;;;;;;;;;4973775;28;20380;-66
2023/09/07 11:18:13;;;;;;;4.40;2.35;;;;;;;;;;4973608;28;20031;-64
2023/09/07 11:20:39;;;;;;;6.68;2.58;;;;;;;;;;4983146;28;20129;-68
2023/09/07 11:23:05;;;;;;;5.43;2.30;;;;;;;;;;4993128;28;20035;-63
2023/09/07 11:25:38;;;;;;;5.80;2.60;;;;;;;;;;4992976;28;20022;-67
2023/09/07 11:28:05;;;;;;;4.72;2.47;;;;;;;;;;4992679;28;20449;-67
2023/09/07 11:30:34;;;;;;;4.38;2.80;;;;;;;;;;5006878;28;20124;-68
2023/09/07 11:33:07;;;;;;;4.70;2.67;;;;;;;;;;5012650;28;20406;-68
2023/09/07 11:35:36;;;;;;;4.55;2.55;;;;;;;;;;5012361;28;20045;-67
2023/09/07 11:38:04;;;;;;;8.37;2.37;;;;;;;;;;5002860;28;20058;-67
2023/09/07 11:40:33;;;;;;;6.45;2.78;;;;;;;;;;4992856;28;20271;-67
2023/09/07 11:42:58;;;;;;;4.18;2.72;;;;;;;;;;4992794;28;20023;-68
2023/09/07 11:45:24;;;;;;;6.90;2.97;;;;;;;;;;4992934;28;20453;-66
2023/09/07 11:47:50;;;;;;;5.40;2.88;;;;;;;;;;4992986;28;20500;-67
2023/09/07 11:50:18;;;;;;;3.38;2.50;;;;;;;;;;4992853;28;20226;-68
2023/09/07 11:52:45;;;;;;;5.65;2.60;;;;;;;;;;4992531;28;20030;-66
2023/09/07 11:55:10;;;;;;;4.18;2.60;;;;;;;;;;4992586;28;20129;-66
2023/09/07 11:57:37;;;;;;;5.72;2.85;;;;;;;;;;4992769;28;20470;-62
2023/09/07 12:00:11;;;;;;;5.80;3.10;;;;;;;;;;4992825;28;20058;-65
2023/09/07 12:02:39;;;;;;;5.03;2.90;;;;;;;;;;4994782;28;20161;-67
2023/09/07 12:05:07;;;;;;;4.05;2.45;;;;;;;;;;4991288;28;20591;-65
2023/09/07 12:07:32;;;;;;;5.43;3.03;;;;;;;;;;4976760;28;20473;-67
2023/09/07 12:09:58;;;;;;;6.20;2.92;;;;;;;;;;4976690;28;20029;-63
2023/09/07 12:12:23;;;;;;;4.97;2.78;;;;;;;;;;4976655;28;20035;-65
2023/09/07 12:14:49;;;;;;;5.82;2.88;;;;;;;;;;4976755;28;20468;-66
2023/09/07 12:17:14;;;;;;;5.82;2.50;;;;;;;;;;4976917;28;20110;-68
2023/09/07 12:19:41;;;;;;;5.75;2.97;;;;;;;;;;4978297;28;20133;-62
2023/09/07 12:22:07;;;;;;;4.18;3.00;;;;;;;;;;4996217;28;20459;-66
2023/09/07 12:24:33;;;;;;;3.92;2.58;;;;;;;;;;4995933;28;20030;-66
2023/09/07 12:26:59;;;;;;;7.13;2.70;;;;;;;;;;4996164;28;20097;-67
2023/09/07 12:29:25;;;;;;;6.10;2.72;;;;;;;;;;4996075;28;20022;-66
2023/09/07 12:31:51;;;;;;;5.72;3.13;;;;;;;;;;4996049;28;20049;-65
2023/09/07 12:34:16;;;;;;;5.80;2.97;;;;;;;;;;4995950;28;20030;-68
2023/09/07 12:36:42;;;;;;;4.63;2.40;;;;;;;;;;4995799;28;20026;-66
2023/09/07 12:39:07;;;;;;;4.38;2.42;;;;;;;;;;4995506;28;20757;-67
2023/09/07 12:41:32;;;;;;;6.13;2.67;;;;;;;;;;4995859;28;20439;-63
2023/09/07 12:43:58;;;;;;;4.18;2.85;;;;;;;;;;4995807;28;20097;-68
2023/09/07 12:46:23;;;;;;;5.00;3.00;;;;;;;;;;4995459;28;20066;-66
2023/09/07 12:48:49;;;;;;;7.50;2.80;;;;;;;;;;4994165;28;20050;-65
2023/09/07 12:51:16;;;;;;;4.95;2.78;;;;;;;;;;4995516;28;20022;-66
2023/09/07 12:53:41;;;;;;;7.63;2.80;;;;;;;;;;4995330;28;20185;-67
2023/09/07 12:56:07;;;;;;;4.50;2.78;;;;;;;;;;4990425;28;20101;-67
2023/09/07 12:58:32;;;;;;;4.95;2.70;;;;;;;;;;4993221;28;20025;-65
2023/09/07 13:00:57;;;;;;;5.38;2.80;;;;;;;;;;4995226;28;20053;-67
2023/09/07 13:03:23;;;;;;;6.85;2.78;;;;;;;;;;4995243;28;20018;-65
2023/09/07 13:05:49;;;;;;;6.68;2.90;;;;;;;;;;4984257;28;20122;-68
2023/09/07 13:08:14;;;;;;;5.45;2.88;;;;;;;;;;4974413;28;20101;-63
2023/09/07 13:10:40;;;;;;;6.35;2.90;;;;;;;;;;4975687;28;20429;-64
2023/09/07 13:13:06;;;;;;;4.88;2.92;;;;;;;;;;4974728;28;20042;-63
2023/09/07 13:15:32;;;;;;;5.60;3.00;;;;;;;;;;4975212;28;20034;-64
2023/09/07 13:17:57;;;;;;;8.88;2.75;;;;;;;;;;4975858;28;20085;-66
2023/09/07 13:20:25;;;;;;;7.20;2.97;;;;;;;;;;4983230;28;20074;-64
2023/09/07 13:22:51;;;;;;;4.88;2.80;;;;;;;;;;4994799;28;20030;-65
2023/09/07 13:25:17;;;;;;;4.88;2.83;;;;;;;;;;4995124;28;20030;-63
2023/09/07 13:27:42;;;;;;;5.20;2.88;;;;;;;;;;4995008;28;20022;-62
2023/09/07 13:30:08;;;;;;;3.40;2.60;;;;;;;;;;4994886;28;20076;-62
2023/09/07 13:32:36;;;;;;;4.43;2.72;;;;;;;;;;4994796;28;20137;-64
2023/09/07 13:35:02;;;;;;;5.68;2.90;;;;;;;;;;4995005;28;20073;-64
2023/09/07 13:37:28;;;;;;;4.15;2.53;;;;;;;;;;4994094;28;20045;-62
2023/09/07 13:39:53;;;;;;;4.32;2.95;;;;;;;;;;4994690;28;20109;-64
2023/09/07 13:42:18;;;;;;;5.55;3.30;;;;;;;;;;4994604;28;20472;-65
2023/09/07 13:44:47;;;;;;;4.55;3.10;;;;;;;;;;4994577;28;20029;-63
2023/09/07 13:47:13;;;;;;;3.55;2.63;;;;;;;;;;4994779;28;20030;-65
2023/09/07 13:49:38;;;;;;;4.97;3.00;;;;;;;;;;4994504;28;20037;-64
2023/09/07 13:52:04;;;;;;;6.15;3.00;;;;;;;;;;4994460;28;20376;-65
2023/09/07 13:54:29;;;;;;;8.50;3.60;;;;;;;;;;4994332;28;20057;-65
2023/09/07 13:56:55;;;;;;;11.40;3.10;;;;;;;;;;4994367;28;20440;-63
2023/09/07 13:59:21;;;;;;;3.78;2.72;;;;;;;;;;4994469;28;20027;-62
2023/09/07 14:01:46;;;;;;;6.30;3.13;;;;;;;;;;4994500;28;20094;-62
2023/09/07 14:04:12;;;;;;;5.68;3.38;;;;;;;;;;4994319;28;20030;-62
2023/09/07 14:06:37;;;;;;;6.18;2.95;;;;;;;;;;4976088;28;20034;-67
2023/09/07 14:09:03;;;;;;;4.47;3.13;;;;;;;;;;4974931;28;20046;-67
2023/09/07 14:11:28;;;;;;;5.22;3.20;;;;;;;;;;4974892;28;20134;-66
2023/09/07 14:13:54;;;;;;;4.15;2.95;;;;;;;;;;4974707;28;20085;-68
2023/09/07 14:16:20;;;;;;;4.97;2.70;;;;;;;;;;4974745;28;20384;-66
2023/09/07 14:18:46;;;;;;;11.45;3.30;;;;;;;;;;4975856;28;20050;-66
2023/09/07 14:21:16;;;;;;;7.97;3.20;;;;;;;;;;4990874;28;20062;-64
2023/09/07 14:23:45;;;;;;;5.82;2.75;;;;;;;;;;5008153;28;20025;-67
2023/09/07 14:26:11;;;;;;;12.52;3.28;;;;;;;;;;4999160;28;20418;-64
2023/09/07 14:28:37;;;;;;;4.78;2.90;;;;;;;;;;5004371;28;20101;-66
2023/09/07 14:31:06;;;;;;;7.38;3.10;;;;;;;;;;5006300;28;20494;-66
2023/09/07 14:33:32;;;;;;;5.80;3.40;;;;;;;;;;4997097;28;20365;-66